NSZ137 EKCH-LPFR
Flight info
| Callsign | NSZ137 |
|---|---|
| Flight time | 3h 40m |
| Altitude | 34000 |
| Route | LANGO M611 ALASA DCT WANZA DCT GISEB DCT WOODY N872 MEDIL DCT KOVIN DCT NIDUV DCT KIHVI UN872 ERIGA UZ218 FUJTI DCT BAKUP DCT BATAX DCT BABEX DCT ALAGU |
| Aircraft | B738/M-SDE2E3FGHIRWXY/LB1 |
Departure
| Time | 2026-05-05 12:42 |
|---|---|
| Airport | Copenhagen Kastrup Airport (EKCH) |
Arrival
| Time | 2026-05-05 16:22 |
|---|---|
| Airport | Faro - Gago Coutinho International Airport (LPFR) |
| Time | Latitude | Longitude | Altitude | Speed | Heading |
|---|---|---|---|---|---|
| 2026-05-05 12:03 | 55.62856 | 12.64257 | 23 ft | 0 kts | 101° |
| 2026-05-05 12:27 | 55.62857 | 12.64252 | 23 ft | 2 kts | 101° |
| 2026-05-05 12:28 | 55.62860 | 12.64223 | 26 ft | 2 kts | 98° |
| 2026-05-05 12:28 | 55.62858 | 12.64195 | 26 ft | 2 kts | 76° |
| 2026-05-05 12:28 | 55.62853 | 12.64168 | 23 ft | 2 kts | 73° |
| 2026-05-05 12:28 | 55.62848 | 12.64140 | 28 ft | 2 kts | 69° |
| 2026-05-05 12:29 | 55.62843 | 12.64113 | 27 ft | 2 kts | 65° |
| 2026-05-05 12:29 | 55.62837 | 12.64088 | 23 ft | 2 kts | 64° |
| 2026-05-05 12:29 | 55.62831 | 12.64061 | 23 ft | 2 kts | 65° |
| 2026-05-05 12:29 | 55.62824 | 12.64035 | 23 ft | 2 kts | 72° |
| 2026-05-05 12:30 | 55.62816 | 12.64010 | 23 ft | 2 kts | 45° |
| 2026-05-05 12:30 | 55.62805 | 12.63989 | 23 ft | 2 kts | 24° |
| 2026-05-05 12:30 | 55.62792 | 12.63972 | 26 ft | 2 kts | 49° |
| 2026-05-05 12:30 | 55.62781 | 12.63952 | 27 ft | 2 kts | 84° |
| 2026-05-05 12:31 | 55.62781 | 12.63926 | 28 ft | 2 kts | 54° |
| 2026-05-05 12:31 | 55.62783 | 12.63905 | 23 ft | 2 kts | 195° |
| 2026-05-05 12:31 | 55.62786 | 12.63909 | 23 ft | 0 kts | 93° |
| 2026-05-05 12:34 | 55.62784 | 12.63917 | 23 ft | 3 kts | 115° |
| 2026-05-05 12:34 | 55.62765 | 12.63935 | 24 ft | 3 kts | 172° |
| 2026-05-05 12:34 | 55.62737 | 12.63912 | 24 ft | 6 kts | 210° |
| 2026-05-05 12:34 | 55.62686 | 12.63859 | 24 ft | 11 kts | 210° |
| 2026-05-05 12:35 | 55.62656 | 12.63859 | 23 ft | 6 kts | 154° |
| 2026-05-05 12:35 | 55.62624 | 12.63935 | 26 ft | 10 kts | 123° |
| 2026-05-05 12:35 | 55.62580 | 12.64056 | 24 ft | 14 kts | 122° |
| 2026-05-05 12:35 | 55.62523 | 12.64216 | 24 ft | 17 kts | 122° |
| 2026-05-05 12:36 | 55.62460 | 12.64392 | 23 ft | 17 kts | 127° |
| 2026-05-05 12:36 | 55.62360 | 12.64433 | 22 ft | 16 kts | 195° |
| 2026-05-05 12:36 | 55.62254 | 12.64397 | 23 ft | 15 kts | 178° |
| 2026-05-05 12:36 | 55.62152 | 12.64424 | 23 ft | 15 kts | 169° |
| 2026-05-05 12:37 | 55.62053 | 12.64457 | 25 ft | 14 kts | 169° |
| 2026-05-05 12:37 | 55.61959 | 12.64489 | 23 ft | 13 kts | 169° |
| 2026-05-05 12:37 | 55.61870 | 12.64519 | 23 ft | 13 kts | 169° |
| 2026-05-05 12:37 | 55.61783 | 12.64549 | 27 ft | 13 kts | 169° |
| 2026-05-05 12:38 | 55.61697 | 12.64570 | 23 ft | 12 kts | 186° |
| 2026-05-05 12:38 | 55.61622 | 12.64505 | 23 ft | 12 kts | 213° |
| 2026-05-05 12:38 | 55.61554 | 12.64425 | 23 ft | 12 kts | 214° |
| 2026-05-05 12:38 | 55.61480 | 12.64338 | 23 ft | 13 kts | 214° |
| 2026-05-05 12:39 | 55.61404 | 12.64251 | 23 ft | 13 kts | 212° |
| 2026-05-05 12:39 | 55.61330 | 12.64166 | 24 ft | 13 kts | 212° |
| 2026-05-05 12:39 | 55.61255 | 12.64081 | 24 ft | 17 kts | 213° |
| 2026-05-05 12:39 | 55.61120 | 12.63926 | 25 ft | 27 kts | 213° |
| 2026-05-05 12:40 | 55.60969 | 12.63752 | 23 ft | 25 kts | 213° |
| 2026-05-05 12:40 | 55.60834 | 12.63600 | 24 ft | 14 kts | 200° |
| 2026-05-05 12:40 | 55.60752 | 12.63669 | 23 ft | 14 kts | 131° |
| 2026-05-05 12:40 | 55.60693 | 12.63795 | 27 ft | 13 kts | 120° |
| 2026-05-05 12:41 | 55.60715 | 12.63927 | 27 ft | 13 kts | 37° |
| 2026-05-05 12:41 | 55.60911 | 12.64225 | 23 ft | 77 kts | 41° |
| 2026-05-05 12:41 | 55.61513 | 12.65161 | 22 ft | 151 kts | 41° |
| 2026-05-05 12:41 | 55.62408 | 12.66571 | 486 ft | 181 kts | 40° |
| 2026-05-05 12:42 | 55.63362 | 12.68080 | 1691 ft | 180 kts | 38° |
| 2026-05-05 12:42 | 55.64274 | 12.69470 | 2862 ft | 175 kts | 38° |
| 2026-05-05 12:42 | 55.65267 | 12.70968 | 3300 ft | 198 kts | 37° |
| 2026-05-05 12:42 | 55.66367 | 12.72606 | 3499 ft | 220 kts | 38° |
| 2026-05-05 12:43 | 55.67596 | 12.74437 | 3712 ft | 242 kts | 38° |
| 2026-05-05 12:43 | 55.68930 | 12.76449 | 4128 ft | 257 kts | 42° |
| 2026-05-05 12:43 | 55.69913 | 12.79098 | 4993 ft | 263 kts | 69° |
| 2026-05-05 12:43 | 55.70096 | 12.82373 | 5667 ft | 275 kts | 97° |
| 2026-05-05 12:44 | 55.69562 | 12.85690 | 6364 ft | 283 kts | 110° |
| 2026-05-05 12:44 | 55.68489 | 12.88624 | 7021 ft | 288 kts | 142° |
| 2026-05-05 12:44 | 55.66721 | 12.90114 | 7747 ft | 283 kts | 176° |
| 2026-05-05 12:44 | 55.64830 | 12.89686 | 8521 ft | 272 kts | 210° |
| 2026-05-05 12:45 | 55.63303 | 12.87808 | 9361 ft | 266 kts | 225° |
| 2026-05-05 12:45 | 55.62121 | 12.85356 | 10042 ft | 266 kts | 239° |
| 2026-05-05 12:45 | 55.61135 | 12.82455 | 10340 ft | 285 kts | 242° |
| 2026-05-05 12:45 | 55.60130 | 12.79314 | 10709 ft | 299 kts | 242° |
| 2026-05-05 12:46 | 55.59072 | 12.75980 | 10866 ft | 321 kts | 242° |
| 2026-05-05 12:46 | 55.57952 | 12.72465 | 11312 ft | 331 kts | 242° |
| 2026-05-05 12:46 | 55.56809 | 12.68909 | 11975 ft | 334 kts | 242° |
| 2026-05-05 12:46 | 55.55654 | 12.65342 | 12733 ft | 335 kts | 241° |
| 2026-05-05 12:47 | 55.54488 | 12.61759 | 13462 ft | 337 kts | 241° |
| 2026-05-05 12:47 | 55.53310 | 12.58156 | 14098 ft | 340 kts | 241° |
| 2026-05-05 12:47 | 55.52134 | 12.54566 | 14679 ft | 343 kts | 241° |
| 2026-05-05 12:47 | 55.50930 | 12.50904 | 15281 ft | 346 kts | 241° |
| 2026-05-05 12:48 | 55.49714 | 12.47211 | 15880 ft | 349 kts | 241° |
| 2026-05-05 12:48 | 55.48488 | 12.43497 | 16467 ft | 352 kts | 241° |
| 2026-05-05 12:48 | 55.47248 | 12.39747 | 17050 ft | 355 kts | 241° |
| 2026-05-05 12:48 | 55.45997 | 12.35967 | 17621 ft | 358 kts | 240° |
| 2026-05-05 12:49 | 55.44735 | 12.32161 | 18192 ft | 361 kts | 240° |
| 2026-05-05 12:49 | 55.43456 | 12.28311 | 18693 ft | 364 kts | 241° |
| 2026-05-05 12:49 | 55.42173 | 12.24456 | 19199 ft | 366 kts | 240° |
| 2026-05-05 12:49 | 55.40893 | 12.20612 | 19672 ft | 369 kts | 240° |
| 2026-05-05 12:50 | 55.39585 | 12.16694 | 20136 ft | 372 kts | 240° |
| 2026-05-05 12:50 | 55.38265 | 12.12745 | 20596 ft | 376 kts | 240° |
| 2026-05-05 12:50 | 55.36933 | 12.08767 | 21051 ft | 378 kts | 240° |
| 2026-05-05 12:50 | 55.35589 | 12.04761 | 21504 ft | 381 kts | 240° |
| 2026-05-05 12:51 | 55.34235 | 12.00730 | 21943 ft | 384 kts | 240° |
| 2026-05-05 12:51 | 55.32870 | 11.96674 | 22382 ft | 387 kts | 240° |
| 2026-05-05 12:51 | 55.31493 | 11.92589 | 22812 ft | 390 kts | 240° |
| 2026-05-05 12:51 | 55.30104 | 11.88476 | 23230 ft | 393 kts | 240° |
| 2026-05-05 12:52 | 55.28702 | 11.84329 | 23620 ft | 396 kts | 240° |
| 2026-05-05 12:52 | 55.27289 | 11.80158 | 23967 ft | 398 kts | 240° |
| 2026-05-05 12:52 | 55.25889 | 11.76034 | 24341 ft | 400 kts | 240° |
| 2026-05-05 12:52 | 55.24462 | 11.71835 | 24694 ft | 402 kts | 240° |
| 2026-05-05 12:53 | 55.23021 | 11.67605 | 25042 ft | 404 kts | 240° |
| 2026-05-05 12:53 | 55.21573 | 11.63359 | 25276 ft | 408 kts | 240° |
| 2026-05-05 12:53 | 55.20108 | 11.59072 | 25609 ft | 410 kts | 240° |
| 2026-05-05 12:53 | 55.18643 | 11.54794 | 26017 ft | 410 kts | 240° |
| 2026-05-05 12:54 | 55.15691 | 11.46195 | 26630 ft | 415 kts | 240° |
| 2026-05-05 12:54 | 55.14198 | 11.41857 | 26924 ft | 417 kts | 240° |
| 2026-05-05 12:54 | 55.12694 | 11.37494 | 27229 ft | 419 kts | 240° |
| 2026-05-05 12:55 | 55.11196 | 11.33157 | 27523 ft | 421 kts | 240° |
| 2026-05-05 12:55 | 55.09679 | 11.28772 | 27809 ft | 423 kts | 240° |
| 2026-05-05 12:55 | 55.08153 | 11.24370 | 28089 ft | 425 kts | 240° |
| 2026-05-05 12:55 | 55.06618 | 11.19949 | 28372 ft | 426 kts | 240° |
| 2026-05-05 12:56 | 55.05083 | 11.15535 | 28758 ft | 425 kts | 240° |
| 2026-05-05 12:56 | 55.03573 | 11.11202 | 29202 ft | 423 kts | 240° |
| 2026-05-05 12:56 | 55.02043 | 11.06821 | 29614 ft | 422 kts | 240° |
| 2026-05-05 12:56 | 55.00509 | 11.02432 | 29823 ft | 425 kts | 240° |
| 2026-05-05 12:57 | 54.98963 | 10.98015 | 30020 ft | 427 kts | 240° |
| 2026-05-05 12:57 | 54.97417 | 10.93608 | 30386 ft | 425 kts | 240° |
| 2026-05-05 12:57 | 54.95885 | 10.89245 | 30842 ft | 420 kts | 240° |
| 2026-05-05 12:57 | 54.94563 | 10.84734 | 31164 ft | 418 kts | 248° |
| 2026-05-05 12:58 | 54.93657 | 10.79930 | 31377 ft | 419 kts | 256° |
| 2026-05-05 12:58 | 54.92943 | 10.75011 | 31632 ft | 419 kts | 256° |
| 2026-05-05 12:58 | 54.92232 | 10.70103 | 31946 ft | 418 kts | 256° |
| 2026-05-05 12:58 | 54.91515 | 10.65209 | 32255 ft | 417 kts | 256° |
| 2026-05-05 12:59 | 54.90789 | 10.60326 | 32526 ft | 417 kts | 255° |
| 2026-05-05 12:59 | 54.90055 | 10.55446 | 32786 ft | 417 kts | 255° |
| 2026-05-05 12:59 | 54.89317 | 10.50578 | 33061 ft | 416 kts | 255° |
| 2026-05-05 13:00 | 54.87833 | 10.40858 | 33556 ft | 416 kts | 255° |
| 2026-05-05 13:00 | 54.87089 | 10.36013 | 33825 ft | 415 kts | 255° |
| 2026-05-05 13:01 | 54.84847 | 10.21488 | 33952 ft | 417 kts | 255° |
| 2026-05-05 13:01 | 54.84095 | 10.16639 | 33946 ft | 414 kts | 255° |
| 2026-05-05 13:01 | 54.82597 | 10.07020 | 33949 ft | 412 kts | 255° |
| 2026-05-05 13:02 | 54.81024 | 9.97479 | 33953 ft | 411 kts | 249° |
| 2026-05-05 13:02 | 54.78299 | 9.88773 | 33968 ft | 412 kts | 238° |
| 2026-05-05 13:03 | 54.75199 | 9.80397 | 33957 ft | 414 kts | 238° |
| 2026-05-05 13:03 | 54.72093 | 9.71969 | 33958 ft | 416 kts | 238° |
| 2026-05-05 13:04 | 54.68979 | 9.63480 | 33953 ft | 418 kts | 238° |
| 2026-05-05 13:04 | 54.65848 | 9.54952 | 33948 ft | 420 kts | 238° |
| 2026-05-05 13:05 | 54.62728 | 9.46478 | 33930 ft | 421 kts | 238° |
| 2026-05-05 13:05 | 54.59590 | 9.37984 | 33942 ft | 421 kts | 238° |
| 2026-05-05 13:06 | 54.56436 | 9.29478 | 33948 ft | 421 kts | 238° |
| 2026-05-05 13:07 | 54.50555 | 9.13696 | 33949 ft | 418 kts | 238° |
| 2026-05-05 13:07 | 54.47249 | 9.04869 | 33945 ft | 417 kts | 238° |
| 2026-05-05 13:08 | 54.44107 | 8.96506 | 33949 ft | 417 kts | 238° |
| 2026-05-05 13:08 | 54.40709 | 8.87496 | 33950 ft | 415 kts | 238° |
| 2026-05-05 13:09 | 54.38073 | 8.80526 | 33942 ft | 415 kts | 238° |
| 2026-05-05 13:09 | 54.34947 | 8.72289 | 33950 ft | 413 kts | 238° |
| 2026-05-05 13:10 | 54.31808 | 8.64042 | 33950 ft | 412 kts | 238° |
| 2026-05-05 13:10 | 54.28674 | 8.55836 | 33947 ft | 411 kts | 238° |
| 2026-05-05 13:11 | 54.25536 | 8.47639 | 33953 ft | 411 kts | 237° |
| 2026-05-05 13:11 | 54.22306 | 8.39637 | 33949 ft | 412 kts | 230° |
| 2026-05-05 13:12 | 54.18288 | 8.33031 | 33952 ft | 413 kts | 224° |
| 2026-05-05 13:12 | 54.14165 | 8.26642 | 33962 ft | 412 kts | 224° |
| 2026-05-05 13:13 | 54.10451 | 8.20865 | 33958 ft | 412 kts | 224° |
| 2026-05-05 13:13 | 54.06946 | 8.15395 | 33955 ft | 411 kts | 224° |
| 2026-05-05 13:14 | 54.03102 | 8.09393 | 33955 ft | 411 kts | 224° |
| 2026-05-05 13:14 | 53.99224 | 8.03349 | 33955 ft | 410 kts | 224° |
| 2026-05-05 13:15 | 53.95072 | 7.96895 | 33956 ft | 408 kts | 225° |
| 2026-05-05 13:15 | 53.90892 | 7.90417 | 33957 ft | 405 kts | 225° |
| 2026-05-05 13:16 | 53.86732 | 7.83987 | 33948 ft | 403 kts | 224° |
| 2026-05-05 13:16 | 53.82585 | 7.77595 | 33954 ft | 402 kts | 224° |
| 2026-05-05 13:17 | 53.78448 | 7.71236 | 33952 ft | 401 kts | 224° |
| 2026-05-05 13:17 | 53.74341 | 7.64941 | 33935 ft | 401 kts | 224° |
| 2026-05-05 13:18 | 53.70216 | 7.58636 | 33937 ft | 400 kts | 224° |
| 2026-05-05 13:18 | 53.66088 | 7.52345 | 33938 ft | 398 kts | 224° |
| 2026-05-05 13:19 | 53.61973 | 7.46091 | 33960 ft | 397 kts | 224° |
| 2026-05-05 13:19 | 53.57869 | 7.39870 | 33952 ft | 396 kts | 224° |
| 2026-05-05 13:20 | 53.53773 | 7.33677 | 33956 ft | 395 kts | 224° |
| 2026-05-05 13:20 | 53.49685 | 7.27513 | 33951 ft | 394 kts | 223° |
| 2026-05-05 13:21 | 53.45601 | 7.21373 | 33952 ft | 393 kts | 223° |
| 2026-05-05 13:21 | 53.41555 | 7.15306 | 33966 ft | 392 kts | 223° |
| 2026-05-05 13:22 | 53.37458 | 7.09178 | 33967 ft | 392 kts | 223° |
| 2026-05-05 13:22 | 53.33413 | 7.03146 | 33965 ft | 392 kts | 223° |
| 2026-05-05 13:23 | 53.29337 | 6.97082 | 33964 ft | 392 kts | 223° |
| 2026-05-05 13:23 | 53.25251 | 6.91020 | 33947 ft | 392 kts | 223° |
| 2026-05-05 13:24 | 53.21186 | 6.85004 | 33946 ft | 393 kts | 223° |
| 2026-05-05 13:24 | 53.17090 | 6.78959 | 33942 ft | 394 kts | 223° |
| 2026-05-05 13:25 | 53.12977 | 6.72906 | 33940 ft | 394 kts | 223° |
| 2026-05-05 13:25 | 53.08858 | 6.66859 | 33940 ft | 395 kts | 223° |
| 2026-05-05 13:26 | 53.04733 | 6.60820 | 33945 ft | 395 kts | 222° |
| 2026-05-05 13:26 | 53.00605 | 6.54792 | 33950 ft | 395 kts | 222° |
| 2026-05-05 13:27 | 52.96471 | 6.48772 | 33942 ft | 395 kts | 222° |
| 2026-05-05 13:27 | 52.92332 | 6.42760 | 33938 ft | 396 kts | 222° |
| 2026-05-05 13:28 | 52.88210 | 6.36789 | 33936 ft | 396 kts | 222° |
| 2026-05-05 13:28 | 52.84068 | 6.30804 | 33920 ft | 396 kts | 222° |
| 2026-05-05 13:29 | 52.79922 | 6.24829 | 33926 ft | 395 kts | 222° |
| 2026-05-05 13:29 | 52.75782 | 6.18879 | 33923 ft | 394 kts | 221° |
| 2026-05-05 13:30 | 52.71647 | 6.12952 | 33921 ft | 393 kts | 221° |
| 2026-05-05 13:30 | 52.67525 | 6.07058 | 33914 ft | 392 kts | 221° |
| 2026-05-05 13:31 | 52.63408 | 6.01187 | 33932 ft | 391 kts | 221° |
| 2026-05-05 13:31 | 52.59290 | 5.95330 | 33932 ft | 391 kts | 221° |
| 2026-05-05 13:32 | 52.55197 | 5.89523 | 33920 ft | 391 kts | 221° |
| 2026-05-05 13:32 | 52.51068 | 5.83680 | 33921 ft | 392 kts | 221° |
| 2026-05-05 13:33 | 52.46926 | 5.77833 | 33911 ft | 393 kts | 221° |
| 2026-05-05 13:33 | 52.42772 | 5.71985 | 33921 ft | 394 kts | 221° |
| 2026-05-05 13:34 | 52.38611 | 5.66141 | 33911 ft | 394 kts | 220° |
| 2026-05-05 13:34 | 52.34437 | 5.60296 | 33904 ft | 395 kts | 220° |
| 2026-05-05 13:35 | 52.30261 | 5.54461 | 33908 ft | 395 kts | 220° |
| 2026-05-05 13:35 | 52.26100 | 5.48664 | 33920 ft | 395 kts | 220° |
| 2026-05-05 13:36 | 52.21909 | 5.42839 | 33923 ft | 396 kts | 220° |
| 2026-05-05 13:36 | 52.17713 | 5.37021 | 33912 ft | 396 kts | 220° |
| 2026-05-05 13:37 | 52.13503 | 5.31200 | 33909 ft | 397 kts | 220° |
| 2026-05-05 13:37 | 52.09292 | 5.25392 | 33908 ft | 397 kts | 219° |
| 2026-05-05 13:38 | 52.05069 | 5.19582 | 33918 ft | 398 kts | 219° |
| 2026-05-05 13:38 | 52.00843 | 5.13783 | 33909 ft | 398 kts | 219° |
| 2026-05-05 13:39 | 51.96612 | 5.07990 | 33910 ft | 398 kts | 219° |
| 2026-05-05 13:39 | 51.92393 | 5.02227 | 33894 ft | 398 kts | 219° |
| 2026-05-05 13:40 | 51.88123 | 4.96482 | 33909 ft | 398 kts | 218° |
| 2026-05-05 13:40 | 51.83782 | 4.90958 | 33911 ft | 399 kts | 217° |
| 2026-05-05 13:41 | 51.79267 | 4.85259 | 33914 ft | 399 kts | 217° |
| 2026-05-05 13:41 | 51.75025 | 4.79885 | 33911 ft | 400 kts | 217° |
| 2026-05-05 13:42 | 51.70640 | 4.74329 | 33904 ft | 401 kts | 217° |
| 2026-05-05 13:42 | 51.66245 | 4.68769 | 33911 ft | 401 kts | 217° |
| 2026-05-05 13:43 | 51.61871 | 4.63250 | 33905 ft | 402 kts | 217° |
| 2026-05-05 13:43 | 51.57460 | 4.57698 | 33904 ft | 402 kts | 216° |
| 2026-05-05 13:44 | 51.53046 | 4.52156 | 33904 ft | 403 kts | 216° |
| 2026-05-05 13:44 | 51.48626 | 4.46620 | 33916 ft | 403 kts | 216° |
| 2026-05-05 13:45 | 51.44195 | 4.41082 | 33908 ft | 404 kts | 216° |
| 2026-05-05 13:45 | 51.39639 | 4.35806 | 33906 ft | 403 kts | 206° |
| 2026-05-05 13:46 | 51.34554 | 4.32062 | 33907 ft | 403 kts | 203° |
| 2026-05-05 13:46 | 51.29489 | 4.28297 | 33915 ft | 404 kts | 204° |
| 2026-05-05 13:47 | 51.24406 | 4.24410 | 33896 ft | 405 kts | 204° |
| 2026-05-05 13:47 | 51.19314 | 4.20533 | 33910 ft | 406 kts | 204° |
| 2026-05-05 13:48 | 51.14127 | 4.16937 | 33897 ft | 406 kts | 198° |
| 2026-05-05 13:48 | 51.08769 | 4.14070 | 33901 ft | 406 kts | 197° |
| 2026-05-05 13:49 | 51.03400 | 4.11219 | 33894 ft | 407 kts | 198° |
| 2026-05-05 13:49 | 50.98073 | 4.08332 | 33897 ft | 407 kts | 198° |
| 2026-05-05 13:50 | 50.92718 | 4.05416 | 33893 ft | 407 kts | 198° |
| 2026-05-05 13:50 | 50.87368 | 4.02494 | 33889 ft | 407 kts | 199° |
| 2026-05-05 13:51 | 50.82097 | 3.99178 | 33885 ft | 407 kts | 201° |
| 2026-05-05 13:51 | 50.76864 | 3.95749 | 33878 ft | 407 kts | 200° |
| 2026-05-05 13:52 | 50.71625 | 3.92366 | 33867 ft | 407 kts | 200° |
| 2026-05-05 13:52 | 50.66429 | 3.89046 | 33876 ft | 407 kts | 200° |
| 2026-05-05 13:53 | 50.61171 | 3.85698 | 33871 ft | 408 kts | 200° |
| 2026-05-05 13:53 | 50.55905 | 3.82327 | 33863 ft | 409 kts | 201° |
| 2026-05-05 13:54 | 50.50676 | 3.78753 | 33872 ft | 410 kts | 201° |
| 2026-05-05 13:54 | 50.45470 | 3.75166 | 33867 ft | 411 kts | 201° |
| 2026-05-05 13:55 | 50.40208 | 3.71577 | 33866 ft | 412 kts | 201° |
| 2026-05-05 13:55 | 50.35822 | 3.68601 | 33876 ft | 413 kts | 201° |
| 2026-05-05 13:56 | 50.30540 | 3.65026 | 33866 ft | 414 kts | 201° |
| 2026-05-05 13:56 | 50.25272 | 3.61468 | 33868 ft | 415 kts | 201° |
| 2026-05-05 13:57 | 50.19965 | 3.57892 | 33858 ft | 416 kts | 201° |
| 2026-05-05 13:57 | 50.14648 | 3.54316 | 33854 ft | 416 kts | 201° |
| 2026-05-05 13:58 | 50.09323 | 3.50743 | 33845 ft | 417 kts | 201° |
| 2026-05-05 13:58 | 50.03995 | 3.47177 | 33862 ft | 418 kts | 201° |
| 2026-05-05 13:59 | 49.95947 | 3.41807 | 33855 ft | 419 kts | 201° |
| 2026-05-05 14:00 | 49.87930 | 3.36477 | 33834 ft | 419 kts | 201° |
| 2026-05-05 14:00 | 49.82563 | 3.32919 | 33827 ft | 420 kts | 201° |
| 2026-05-05 14:01 | 49.77190 | 3.29366 | 33827 ft | 420 kts | 201° |
| 2026-05-05 14:01 | 49.71818 | 3.25822 | 33825 ft | 420 kts | 201° |
| 2026-05-05 14:02 | 49.66436 | 3.22280 | 33827 ft | 420 kts | 200° |
| 2026-05-05 14:02 | 49.61054 | 3.18746 | 33825 ft | 420 kts | 200° |
| 2026-05-05 14:03 | 49.55704 | 3.15241 | 33818 ft | 420 kts | 200° |
| 2026-05-05 14:03 | 49.50293 | 3.11204 | 33807 ft | 424 kts | 214° |
| 2026-05-05 14:04 | 49.46255 | 3.04626 | 33813 ft | 431 kts | 236° |
| 2026-05-05 14:04 | 49.43369 | 2.96758 | 33819 ft | 432 kts | 238° |
| 2026-05-05 14:05 | 49.40457 | 2.88743 | 33817 ft | 433 kts | 238° |
| 2026-05-05 14:05 | 49.37467 | 2.80708 | 33816 ft | 434 kts | 237° |
| 2026-05-05 14:06 | 49.34454 | 2.72680 | 33818 ft | 435 kts | 237° |
| 2026-05-05 14:06 | 49.31543 | 2.64532 | 33830 ft | 436 kts | 239° |
| 2026-05-05 14:07 | 49.28679 | 2.56308 | 33825 ft | 437 kts | 239° |
| 2026-05-05 14:07 | 49.25810 | 2.48149 | 33829 ft | 438 kts | 239° |
| 2026-05-05 14:08 | 49.22906 | 2.39955 | 33836 ft | 438 kts | 239° |
| 2026-05-05 14:08 | 49.19992 | 2.31763 | 33847 ft | 439 kts | 239° |
| 2026-05-05 14:09 | 49.17011 | 2.23601 | 33852 ft | 439 kts | 238° |
| 2026-05-05 14:09 | 49.13999 | 2.15482 | 33863 ft | 439 kts | 238° |
| 2026-05-05 14:10 | 49.10995 | 2.07368 | 33859 ft | 439 kts | 238° |
| 2026-05-05 14:10 | 49.08154 | 1.99100 | 33862 ft | 440 kts | 242° |
| 2026-05-05 14:11 | 49.05630 | 1.90612 | 33886 ft | 441 kts | 243° |
| 2026-05-05 14:11 | 49.03100 | 1.82004 | 33811 ft | 445 kts | 243° |
| 2026-05-05 14:12 | 49.00546 | 1.73505 | 33836 ft | 444 kts | 243° |
| 2026-05-05 14:12 | 48.97971 | 1.65014 | 33838 ft | 443 kts | 242° |
| 2026-05-05 14:13 | 48.95378 | 1.56498 | 33867 ft | 443 kts | 242° |
| 2026-05-05 14:13 | 48.92777 | 1.47983 | 33857 ft | 446 kts | 242° |
| 2026-05-05 14:14 | 48.90162 | 1.39443 | 33850 ft | 445 kts | 242° |
| 2026-05-05 14:14 | 48.87546 | 1.30929 | 33870 ft | 443 kts | 242° |
| 2026-05-05 14:15 | 48.84933 | 1.22454 | 33855 ft | 443 kts | 242° |
| 2026-05-05 14:15 | 48.82330 | 1.14043 | 33855 ft | 442 kts | 242° |
| 2026-05-05 14:16 | 48.79714 | 1.05616 | 33859 ft | 441 kts | 242° |
| 2026-05-05 14:16 | 48.77093 | 0.97199 | 33857 ft | 441 kts | 242° |
| 2026-05-05 14:17 | 48.74460 | 0.88802 | 33857 ft | 440 kts | 240° |
| 2026-05-05 14:17 | 48.71390 | 0.80810 | 33866 ft | 439 kts | 235° |
| 2026-05-05 14:18 | 48.68137 | 0.72999 | 33863 ft | 439 kts | 235° |
| 2026-05-05 14:18 | 48.64891 | 0.65144 | 33871 ft | 441 kts | 235° |
| 2026-05-05 14:19 | 48.61660 | 0.57239 | 33861 ft | 443 kts | 236° |
| 2026-05-05 14:19 | 48.58441 | 0.49347 | 33862 ft | 444 kts | 236° |
| 2026-05-05 14:20 | 48.55192 | 0.41407 | 33869 ft | 445 kts | 235° |
| 2026-05-05 14:20 | 48.51928 | 0.33454 | 33875 ft | 446 kts | 235° |
| 2026-05-05 14:21 | 48.48625 | 0.25440 | 33863 ft | 451 kts | 235° |
| 2026-05-05 14:21 | 48.45344 | 0.17483 | 33837 ft | 442 kts | 235° |
| 2026-05-05 14:22 | 48.42092 | 0.09630 | 33868 ft | 442 kts | 235° |
| 2026-05-05 14:22 | 48.38824 | 0.01764 | 33864 ft | 444 kts | 235° |
| 2026-05-05 14:23 | 48.35505 | -0.06078 | 33873 ft | 444 kts | 232° |
| 2026-05-05 14:23 | 48.31822 | -0.13470 | 33872 ft | 444 kts | 229° |
| 2026-05-05 14:24 | 48.28062 | -0.20853 | 33861 ft | 445 kts | 230° |
| 2026-05-05 14:24 | 48.24338 | -0.28289 | 33856 ft | 446 kts | 229° |
| 2026-05-05 14:25 | 48.20572 | -0.35676 | 33868 ft | 444 kts | 229° |
| 2026-05-05 14:25 | 48.16835 | -0.42965 | 33867 ft | 443 kts | 229° |
| 2026-05-05 14:26 | 48.13084 | -0.50272 | 33872 ft | 441 kts | 229° |
| 2026-05-05 14:26 | 48.09343 | -0.57549 | 33883 ft | 440 kts | 229° |
| 2026-05-05 14:27 | 48.05604 | -0.64806 | 33886 ft | 441 kts | 229° |
| 2026-05-05 14:27 | 48.01845 | -0.72080 | 33879 ft | 444 kts | 229° |
| 2026-05-05 14:28 | 47.98069 | -0.79368 | 33890 ft | 443 kts | 229° |
| 2026-05-05 14:28 | 47.94292 | -0.86642 | 33895 ft | 443 kts | 229° |
| 2026-05-05 14:29 | 47.90529 | -0.93866 | 33864 ft | 443 kts | 229° |
| 2026-05-05 14:29 | 47.86744 | -1.01115 | 33862 ft | 443 kts | 229° |
| 2026-05-05 14:30 | 47.82948 | -1.08367 | 33873 ft | 443 kts | 229° |
| 2026-05-05 14:30 | 47.79165 | -1.15573 | 33872 ft | 444 kts | 229° |
| 2026-05-05 14:31 | 47.75361 | -1.22799 | 33873 ft | 444 kts | 229° |
| 2026-05-05 14:31 | 47.71547 | -1.30028 | 33879 ft | 445 kts | 229° |
| 2026-05-05 14:32 | 47.67721 | -1.37259 | 33873 ft | 446 kts | 229° |
| 2026-05-05 14:32 | 47.63884 | -1.44495 | 33887 ft | 446 kts | 229° |
| 2026-05-05 14:33 | 47.60028 | -1.51737 | 33876 ft | 447 kts | 227° |
| 2026-05-05 14:33 | 47.55937 | -1.58677 | 33875 ft | 447 kts | 224° |
| 2026-05-05 14:34 | 47.51740 | -1.65445 | 33871 ft | 445 kts | 224° |
| 2026-05-05 14:34 | 47.47577 | -1.72211 | 33890 ft | 444 kts | 225° |
| 2026-05-05 14:35 | 47.43438 | -1.78978 | 33876 ft | 443 kts | 225° |
| 2026-05-05 14:35 | 47.39312 | -1.85719 | 33884 ft | 442 kts | 225° |
| 2026-05-05 14:36 | 47.35153 | -1.92298 | 33898 ft | 439 kts | 219° |
| 2026-05-05 14:36 | 47.30169 | -1.97325 | 33917 ft | 434 kts | 208° |
| 2026-05-05 14:37 | 47.24982 | -2.01843 | 33919 ft | 435 kts | 208° |
| 2026-05-05 14:37 | 47.19952 | -2.06265 | 33915 ft | 436 kts | 208° |
| 2026-05-05 14:38 | 47.14801 | -2.10836 | 33920 ft | 438 kts | 209° |
| 2026-05-05 14:38 | 47.09913 | -2.15181 | 33898 ft | 440 kts | 208° |
| 2026-05-05 14:39 | 47.04843 | -2.19679 | 33900 ft | 441 kts | 209° |
| 2026-05-05 14:39 | 46.99742 | -2.24190 | 33898 ft | 442 kts | 208° |
| 2026-05-05 14:40 | 46.94617 | -2.28715 | 33908 ft | 442 kts | 209° |
| 2026-05-05 14:40 | 46.90393 | -2.32437 | 33904 ft | 442 kts | 208° |
| 2026-05-05 14:41 | 46.85183 | -2.37016 | 33904 ft | 441 kts | 208° |
| 2026-05-05 14:41 | 46.80118 | -2.41464 | 33909 ft | 440 kts | 209° |
| 2026-05-05 14:42 | 46.74948 | -2.45994 | 33896 ft | 440 kts | 209° |
| 2026-05-05 14:42 | 46.69832 | -2.50470 | 33901 ft | 440 kts | 209° |
| 2026-05-05 14:43 | 46.64593 | -2.55042 | 33908 ft | 440 kts | 209° |
| 2026-05-05 14:43 | 46.59364 | -2.59593 | 33909 ft | 439 kts | 209° |
| 2026-05-05 14:44 | 46.54161 | -2.64115 | 33914 ft | 439 kts | 209° |
| 2026-05-05 14:44 | 46.48923 | -2.68656 | 33916 ft | 440 kts | 208° |
| 2026-05-05 14:45 | 46.43633 | -2.73232 | 33921 ft | 440 kts | 209° |
| 2026-05-05 14:45 | 46.38406 | -2.77743 | 33918 ft | 441 kts | 208° |
| 2026-05-05 14:46 | 46.33171 | -2.82252 | 33928 ft | 442 kts | 209° |
| 2026-05-05 14:46 | 46.27870 | -2.86809 | 33925 ft | 443 kts | 208° |
| 2026-05-05 14:47 | 46.22569 | -2.91385 | 33925 ft | 444 kts | 210° |
| 2026-05-05 14:47 | 46.17259 | -2.96014 | 33930 ft | 446 kts | 210° |
| 2026-05-05 14:48 | 46.11946 | -3.00643 | 33934 ft | 447 kts | 210° |
| 2026-05-05 14:48 | 46.06645 | -3.05244 | 33935 ft | 448 kts | 210° |
| 2026-05-05 14:49 | 46.01297 | -3.09871 | 33933 ft | 448 kts | 208° |
| 2026-05-05 14:49 | 45.95942 | -3.14489 | 33929 ft | 448 kts | 209° |
| 2026-05-05 14:50 | 45.90591 | -3.19094 | 33943 ft | 448 kts | 210° |
| 2026-05-05 14:50 | 45.85238 | -3.23698 | 33941 ft | 448 kts | 210° |
| 2026-05-05 14:51 | 45.79888 | -3.28283 | 33937 ft | 448 kts | 210° |
| 2026-05-05 14:51 | 45.74526 | -3.32869 | 33935 ft | 448 kts | 210° |
| 2026-05-05 14:52 | 45.69206 | -3.37409 | 33943 ft | 448 kts | 211° |
| 2026-05-05 14:52 | 45.63837 | -3.41979 | 33951 ft | 448 kts | 210° |
| 2026-05-05 14:53 | 45.58483 | -3.46526 | 33943 ft | 448 kts | 210° |
| 2026-05-05 14:53 | 45.53125 | -3.51068 | 33948 ft | 447 kts | 210° |
| 2026-05-05 14:54 | 45.47767 | -3.55598 | 33957 ft | 447 kts | 211° |
| 2026-05-05 14:54 | 45.42400 | -3.60128 | 33949 ft | 448 kts | 211° |
| 2026-05-05 14:55 | 45.37069 | -3.64615 | 33952 ft | 448 kts | 211° |
| 2026-05-05 14:55 | 45.31692 | -3.69132 | 33966 ft | 449 kts | 211° |
| 2026-05-05 14:56 | 45.26314 | -3.73639 | 33963 ft | 449 kts | 211° |
| 2026-05-05 14:56 | 45.20933 | -3.78139 | 33952 ft | 448 kts | 211° |
| 2026-05-05 14:57 | 45.15570 | -3.82612 | 33965 ft | 447 kts | 211° |
| 2026-05-05 14:57 | 45.10204 | -3.87081 | 33959 ft | 447 kts | 211° |
| 2026-05-05 14:58 | 45.04848 | -3.91533 | 33967 ft | 446 kts | 212° |
| 2026-05-05 14:58 | 44.99498 | -3.95968 | 33963 ft | 445 kts | 212° |
| 2026-05-05 14:59 | 44.94151 | -4.00389 | 33973 ft | 445 kts | 212° |
| 2026-05-05 14:59 | 44.88838 | -4.04773 | 33970 ft | 444 kts | 211° |
| 2026-05-05 15:00 | 44.84366 | -4.08460 | 33965 ft | 444 kts | 212° |
| 2026-05-05 15:00 | 44.78161 | -4.13560 | 33978 ft | 444 kts | 212° |
| 2026-05-05 15:01 | 44.72820 | -4.17937 | 33978 ft | 444 kts | 211° |
| 2026-05-05 15:01 | 44.67483 | -4.22302 | 33976 ft | 444 kts | 211° |
| 2026-05-05 15:02 | 44.62149 | -4.26661 | 33980 ft | 444 kts | 212° |
| 2026-05-05 15:02 | 44.56805 | -4.31016 | 33979 ft | 444 kts | 212° |
| 2026-05-05 15:03 | 44.51461 | -4.35361 | 33981 ft | 444 kts | 211° |
| 2026-05-05 15:03 | 44.46114 | -4.39702 | 33986 ft | 444 kts | 211° |
| 2026-05-05 15:04 | 44.40798 | -4.44007 | 33983 ft | 444 kts | 212° |
| 2026-05-05 15:04 | 44.35503 | -4.48447 | 33987 ft | 444 kts | 213° |
| 2026-05-05 15:05 | 44.27593 | -4.55186 | 33988 ft | 444 kts | 213° |
| 2026-05-05 15:06 | 44.22301 | -4.59665 | 33981 ft | 444 kts | 213° |
| 2026-05-05 15:06 | 44.17021 | -4.64114 | 33989 ft | 443 kts | 213° |
| 2026-05-05 15:07 | 44.11738 | -4.68552 | 33991 ft | 443 kts | 213° |
| 2026-05-05 15:07 | 44.06487 | -4.72955 | 33998 ft | 443 kts | 213° |
| 2026-05-05 15:08 | 44.01213 | -4.77368 | 34003 ft | 443 kts | 213° |
| 2026-05-05 15:08 | 43.95930 | -4.81779 | 34002 ft | 442 kts | 213° |
| 2026-05-05 15:09 | 43.90650 | -4.86178 | 34000 ft | 442 kts | 213° |
| 2026-05-05 15:09 | 43.85411 | -4.90534 | 34008 ft | 441 kts | 213° |
| 2026-05-05 15:10 | 43.80138 | -4.94910 | 34014 ft | 441 kts | 213° |
| 2026-05-05 15:10 | 43.74884 | -4.99261 | 34008 ft | 440 kts | 213° |
| 2026-05-05 15:11 | 43.69644 | -5.03590 | 34020 ft | 439 kts | 214° |
| 2026-05-05 15:11 | 43.64380 | -5.07932 | 34022 ft | 439 kts | 214° |
| 2026-05-05 15:12 | 43.59129 | -5.12254 | 34022 ft | 439 kts | 214° |
| 2026-05-05 15:12 | 43.53909 | -5.16541 | 34028 ft | 439 kts | 214° |
| 2026-05-05 15:13 | 43.48653 | -5.20849 | 34024 ft | 439 kts | 214° |
| 2026-05-05 15:13 | 43.43399 | -5.25146 | 34042 ft | 439 kts | 214° |
| 2026-05-05 15:14 | 43.38168 | -5.29416 | 34031 ft | 439 kts | 214° |
| 2026-05-05 15:14 | 43.32905 | -5.33703 | 34030 ft | 440 kts | 214° |
| 2026-05-05 15:15 | 43.27627 | -5.37994 | 34034 ft | 440 kts | 214° |
| 2026-05-05 15:15 | 43.22344 | -5.42280 | 34039 ft | 441 kts | 214° |
| 2026-05-05 15:16 | 43.17068 | -5.46552 | 34027 ft | 442 kts | 214° |
| 2026-05-05 15:16 | 43.11765 | -5.50837 | 34022 ft | 442 kts | 214° |
| 2026-05-05 15:17 | 43.06488 | -5.55091 | 34027 ft | 441 kts | 215° |
| 2026-05-05 15:17 | 43.01198 | -5.59348 | 34024 ft | 440 kts | 215° |
| 2026-05-05 15:18 | 42.95908 | -5.63596 | 34006 ft | 439 kts | 215° |
| 2026-05-05 15:18 | 42.90641 | -5.67818 | 34001 ft | 438 kts | 215° |
| 2026-05-05 15:19 | 42.85425 | -5.71989 | 33971 ft | 436 kts | 215° |
| 2026-05-05 15:19 | 42.80190 | -5.76168 | 34001 ft | 435 kts | 215° |
| 2026-05-05 15:20 | 42.74964 | -5.80333 | 33995 ft | 435 kts | 215° |
| 2026-05-05 15:20 | 42.69730 | -5.84495 | 34001 ft | 436 kts | 215° |
| 2026-05-05 15:21 | 42.64480 | -5.88663 | 33995 ft | 437 kts | 215° |
| 2026-05-05 15:21 | 42.59241 | -5.92813 | 33996 ft | 438 kts | 215° |
| 2026-05-05 15:22 | 42.53959 | -5.96988 | 33995 ft | 439 kts | 215° |
| 2026-05-05 15:22 | 42.48667 | -6.01163 | 33992 ft | 440 kts | 215° |
| 2026-05-05 15:23 | 42.43350 | -6.05349 | 33978 ft | 441 kts | 215° |
| 2026-05-05 15:23 | 42.38076 | -6.09493 | 33966 ft | 440 kts | 215° |
| 2026-05-05 15:24 | 42.32772 | -6.13652 | 33982 ft | 440 kts | 215° |
| 2026-05-05 15:24 | 42.27468 | -6.17804 | 33985 ft | 440 kts | 215° |
| 2026-05-05 15:25 | 42.23061 | -6.21247 | 33950 ft | 440 kts | 215° |
| 2026-05-05 15:25 | 42.17765 | -6.25376 | 33972 ft | 439 kts | 215° |
| 2026-05-05 15:26 | 42.12475 | -6.29494 | 33976 ft | 438 kts | 215° |
| 2026-05-05 15:26 | 42.07233 | -6.33566 | 33977 ft | 437 kts | 215° |
| 2026-05-05 15:27 | 42.01964 | -6.37652 | 33955 ft | 437 kts | 216° |
| 2026-05-05 15:27 | 41.96691 | -6.41733 | 33979 ft | 436 kts | 216° |
| 2026-05-05 15:28 | 41.91456 | -6.45777 | 33973 ft | 435 kts | 216° |
| 2026-05-05 15:28 | 41.86216 | -6.49817 | 33970 ft | 434 kts | 217° |
| 2026-05-05 15:29 | 41.80978 | -6.53849 | 33971 ft | 434 kts | 217° |
| 2026-05-05 15:29 | 41.75747 | -6.57868 | 33972 ft | 433 kts | 217° |
| 2026-05-05 15:30 | 41.70561 | -6.61844 | 33979 ft | 432 kts | 217° |
| 2026-05-05 15:30 | 41.65275 | -6.65705 | 33981 ft | 433 kts | 215° |
| 2026-05-05 15:31 | 41.59927 | -6.69420 | 33987 ft | 433 kts | 215° |
| 2026-05-05 15:31 | 41.54600 | -6.73128 | 33991 ft | 431 kts | 216° |
| 2026-05-05 15:32 | 41.49286 | -6.76852 | 33990 ft | 430 kts | 216° |
| 2026-05-05 15:32 | 41.43980 | -6.80574 | 33999 ft | 430 kts | 216° |
| 2026-05-05 15:33 | 41.38676 | -6.84288 | 33971 ft | 431 kts | 216° |
| 2026-05-05 15:33 | 41.33384 | -6.87986 | 33983 ft | 429 kts | 215° |
| 2026-05-05 15:34 | 41.28132 | -6.91650 | 33973 ft | 428 kts | 215° |
| 2026-05-05 15:34 | 41.22869 | -6.95315 | 33991 ft | 426 kts | 215° |
| 2026-05-05 15:35 | 41.17610 | -6.98968 | 33999 ft | 426 kts | 215° |
| 2026-05-05 15:35 | 41.12363 | -7.02610 | 33976 ft | 425 kts | 215° |
| 2026-05-05 15:36 | 41.07119 | -7.06240 | 33998 ft | 424 kts | 215° |
| 2026-05-05 15:36 | 41.01520 | -7.08990 | 33994 ft | 440 kts | 197° |
| 2026-05-05 15:37 | 40.95425 | -7.10146 | 33992 ft | 443 kts | 195° |
| 2026-05-05 15:37 | 40.89321 | -7.11198 | 33963 ft | 441 kts | 194° |
| 2026-05-05 15:38 | 40.83251 | -7.12274 | 33988 ft | 439 kts | 195° |
| 2026-05-05 15:38 | 40.77247 | -7.13385 | 33994 ft | 438 kts | 195° |
| 2026-05-05 15:39 | 40.71208 | -7.14511 | 33998 ft | 438 kts | 195° |
| 2026-05-05 15:39 | 40.65177 | -7.15633 | 33988 ft | 437 kts | 195° |
| 2026-05-05 15:40 | 40.59149 | -7.16750 | 33996 ft | 437 kts | 195° |
| 2026-05-05 15:40 | 40.53132 | -7.17863 | 33991 ft | 436 kts | 195° |
| 2026-05-05 15:41 | 40.47110 | -7.18974 | 33995 ft | 436 kts | 195° |
| 2026-05-05 15:41 | 40.41095 | -7.20083 | 33994 ft | 436 kts | 195° |
| 2026-05-05 15:42 | 40.35111 | -7.21183 | 33987 ft | 437 kts | 195° |
| 2026-05-05 15:42 | 40.29087 | -7.22289 | 33978 ft | 437 kts | 194° |
| 2026-05-05 15:43 | 40.23069 | -7.23391 | 33978 ft | 436 kts | 194° |
| 2026-05-05 15:43 | 40.17061 | -7.24488 | 33987 ft | 434 kts | 194° |
| 2026-05-05 15:44 | 40.11080 | -7.25580 | 33984 ft | 433 kts | 194° |
| 2026-05-05 15:44 | 40.05165 | -7.26657 | 33985 ft | 431 kts | 194° |
| 2026-05-05 15:45 | 39.99218 | -7.27738 | 33984 ft | 429 kts | 195° |
| 2026-05-05 15:45 | 39.93321 | -7.28809 | 33989 ft | 427 kts | 195° |
| 2026-05-05 15:46 | 39.87435 | -7.29877 | 33985 ft | 425 kts | 195° |
| 2026-05-05 15:46 | 39.81611 | -7.30931 | 33995 ft | 424 kts | 195° |
| 2026-05-05 15:47 | 39.75773 | -7.31986 | 33986 ft | 423 kts | 195° |
| 2026-05-05 15:47 | 39.69978 | -7.33031 | 33992 ft | 422 kts | 195° |
| 2026-05-05 15:48 | 39.64150 | -7.34082 | 33999 ft | 422 kts | 195° |
| 2026-05-05 15:48 | 39.58328 | -7.35129 | 33997 ft | 422 kts | 195° |
| 2026-05-05 15:49 | 39.52505 | -7.36173 | 33996 ft | 422 kts | 195° |
| 2026-05-05 15:49 | 39.46677 | -7.37218 | 33991 ft | 423 kts | 195° |
| 2026-05-05 15:50 | 39.40824 | -7.38264 | 34004 ft | 423 kts | 195° |
| 2026-05-05 15:50 | 39.35024 | -7.39300 | 33989 ft | 424 kts | 195° |
| 2026-05-05 15:51 | 39.29180 | -7.40341 | 33986 ft | 423 kts | 196° |
| 2026-05-05 15:51 | 39.23334 | -7.41381 | 34005 ft | 423 kts | 196° |
| 2026-05-05 15:52 | 39.17546 | -7.42408 | 34001 ft | 422 kts | 196° |
| 2026-05-05 15:52 | 39.11725 | -7.43439 | 34004 ft | 417 kts | 196° |
| 2026-05-05 15:52 | 39.08891 | -7.43933 | 33979 ft | 405 kts | 197° |
| 2026-05-05 15:53 | 39.06113 | -7.44418 | 33990 ft | 397 kts | 197° |
| 2026-05-05 15:53 | 39.03406 | -7.44891 | 33728 ft | 390 kts | 197° |
| 2026-05-05 15:53 | 39.00686 | -7.45377 | 32992 ft | 395 kts | 197° |
| 2026-05-05 15:53 | 38.98045 | -7.45850 | 32538 ft | 393 kts | 197° |
| 2026-05-05 15:54 | 38.95310 | -7.46336 | 32126 ft | 390 kts | 196° |
| 2026-05-05 15:54 | 38.92629 | -7.46809 | 31749 ft | 387 kts | 196° |
| 2026-05-05 15:54 | 38.89967 | -7.47278 | 31368 ft | 384 kts | 196° |
| 2026-05-05 15:54 | 38.87328 | -7.47742 | 30973 ft | 382 kts | 196° |
| 2026-05-05 15:55 | 38.84702 | -7.48203 | 30619 ft | 379 kts | 196° |
| 2026-05-05 15:55 | 38.82096 | -7.48661 | 30274 ft | 376 kts | 196° |
| 2026-05-05 15:55 | 38.79512 | -7.49115 | 29894 ft | 373 kts | 196° |
| 2026-05-05 15:55 | 38.76949 | -7.49565 | 29491 ft | 371 kts | 196° |
| 2026-05-05 15:56 | 38.74403 | -7.50012 | 29117 ft | 367 kts | 196° |
| 2026-05-05 15:56 | 38.71882 | -7.50453 | 28737 ft | 363 kts | 196° |
| 2026-05-05 15:56 | 38.69389 | -7.50889 | 28388 ft | 360 kts | 196° |
| 2026-05-05 15:56 | 38.66917 | -7.51322 | 28011 ft | 357 kts | 196° |
| 2026-05-05 15:57 | 38.64462 | -7.51752 | 27631 ft | 354 kts | 195° |
| 2026-05-05 15:57 | 38.62033 | -7.52176 | 27313 ft | 350 kts | 195° |
| 2026-05-05 15:57 | 38.59660 | -7.52591 | 26953 ft | 348 kts | 195° |
| 2026-05-05 15:57 | 38.57262 | -7.53011 | 26603 ft | 346 kts | 195° |
| 2026-05-05 15:58 | 38.54877 | -7.53427 | 26258 ft | 344 kts | 195° |
| 2026-05-05 15:58 | 38.52517 | -7.53840 | 25916 ft | 343 kts | 195° |
| 2026-05-05 15:58 | 38.50148 | -7.54254 | 25582 ft | 342 kts | 194° |
| 2026-05-05 15:58 | 38.47780 | -7.54668 | 25237 ft | 345 kts | 194° |
| 2026-05-05 15:59 | 38.45402 | -7.55086 | 24912 ft | 354 kts | 194° |
| 2026-05-05 15:59 | 38.42938 | -7.55519 | 24526 ft | 359 kts | 193° |
| 2026-05-05 15:59 | 38.40469 | -7.55947 | 24143 ft | 357 kts | 193° |
| 2026-05-05 15:59 | 38.38008 | -7.56372 | 23801 ft | 356 kts | 192° |
| 2026-05-05 16:00 | 38.35559 | -7.56794 | 23421 ft | 354 kts | 192° |
| 2026-05-05 16:00 | 38.33119 | -7.57215 | 23016 ft | 352 kts | 192° |
| 2026-05-05 16:00 | 38.30694 | -7.57634 | 22634 ft | 350 kts | 192° |
| 2026-05-05 16:00 | 38.28288 | -7.58050 | 22281 ft | 347 kts | 192° |
| 2026-05-05 16:01 | 38.25901 | -7.58463 | 21932 ft | 345 kts | 192° |
| 2026-05-05 16:01 | 38.23527 | -7.58874 | 21583 ft | 343 kts | 192° |
| 2026-05-05 16:01 | 38.21171 | -7.59281 | 21243 ft | 340 kts | 192° |
| 2026-05-05 16:01 | 38.18833 | -7.59685 | 20907 ft | 338 kts | 192° |
| 2026-05-05 16:02 | 38.16504 | -7.60088 | 20574 ft | 336 kts | 192° |
| 2026-05-05 16:02 | 38.14204 | -7.60485 | 20243 ft | 335 kts | 192° |
| 2026-05-05 16:02 | 38.11910 | -7.60880 | 19908 ft | 333 kts | 192° |
| 2026-05-05 16:02 | 38.09646 | -7.61270 | 19582 ft | 332 kts | 192° |
| 2026-05-05 16:03 | 38.07346 | -7.61549 | 19247 ft | 333 kts | 186° |
| 2026-05-05 16:03 | 38.05030 | -7.61587 | 18919 ft | 333 kts | 184° |
| 2026-05-05 16:03 | 38.02716 | -7.61552 | 18588 ft | 332 kts | 183° |
| 2026-05-05 16:03 | 38.00411 | -7.61508 | 18247 ft | 331 kts | 183° |
| 2026-05-05 16:04 | 37.98109 | -7.61473 | 17869 ft | 330 kts | 183° |
| 2026-05-05 16:04 | 37.95815 | -7.61450 | 17504 ft | 328 kts | 183° |
| 2026-05-05 16:04 | 37.93531 | -7.61437 | 17145 ft | 327 kts | 183° |
| 2026-05-05 16:04 | 37.91265 | -7.61429 | 16819 ft | 325 kts | 183° |
| 2026-05-05 16:05 | 37.89008 | -7.61426 | 16493 ft | 323 kts | 183° |
| 2026-05-05 16:05 | 37.86802 | -7.61425 | 16173 ft | 322 kts | 183° |
| 2026-05-05 16:05 | 37.84571 | -7.61426 | 15856 ft | 320 kts | 184° |
| 2026-05-05 16:05 | 37.82344 | -7.61428 | 15542 ft | 319 kts | 183° |
| 2026-05-05 16:06 | 37.80122 | -7.61430 | 15222 ft | 318 kts | 184° |
| 2026-05-05 16:06 | 37.77913 | -7.61432 | 14905 ft | 317 kts | 183° |
| 2026-05-05 16:06 | 37.75731 | -7.61434 | 14593 ft | 316 kts | 183° |
| 2026-05-05 16:06 | 37.73535 | -7.61437 | 14279 ft | 316 kts | 183° |
| 2026-05-05 16:07 | 37.71337 | -7.61440 | 13969 ft | 315 kts | 183° |
| 2026-05-05 16:07 | 37.69144 | -7.61443 | 13623 ft | 314 kts | 183° |
| 2026-05-05 16:07 | 37.66960 | -7.61445 | 13286 ft | 313 kts | 183° |
| 2026-05-05 16:07 | 37.64786 | -7.61447 | 12959 ft | 312 kts | 183° |
| 2026-05-05 16:08 | 37.62619 | -7.61449 | 12642 ft | 310 kts | 183° |
| 2026-05-05 16:08 | 37.61188 | -7.61450 | 12434 ft | 309 kts | 182° |
| 2026-05-05 16:08 | 37.59045 | -7.61453 | 12130 ft | 307 kts | 182° |
| 2026-05-05 16:08 | 37.56902 | -7.61455 | 11816 ft | 306 kts | 183° |
| 2026-05-05 16:09 | 37.54119 | -7.61456 | 11410 ft | 304 kts | 183° |
| 2026-05-05 16:09 | 37.52691 | -7.61457 | 11200 ft | 303 kts | 183° |
| 2026-05-05 16:09 | 37.50584 | -7.61457 | 10900 ft | 302 kts | 183° |
| 2026-05-05 16:09 | 37.48484 | -7.61459 | 10594 ft | 301 kts | 182° |
| 2026-05-05 16:10 | 37.46416 | -7.61461 | 10300 ft | 300 kts | 183° |
| 2026-05-05 16:10 | 37.44351 | -7.61462 | 10161 ft | 293 kts | 182° |
| 2026-05-05 16:10 | 37.42333 | -7.61461 | 10011 ft | 287 kts | 183° |
| 2026-05-05 16:10 | 37.40336 | -7.61463 | 9718 ft | 286 kts | 182° |
| 2026-05-05 16:11 | 37.38346 | -7.61464 | 9419 ft | 285 kts | 183° |
| 2026-05-05 16:11 | 37.32416 | -7.61469 | 8572 ft | 283 kts | 182° |
| 2026-05-05 16:12 | 37.30445 | -7.61470 | 8300 ft | 282 kts | 181° |
| 2026-05-05 16:12 | 37.26557 | -7.61473 | 7729 ft | 281 kts | 181° |
| 2026-05-05 16:13 | 37.20699 | -7.61475 | 6896 ft | 278 kts | 181° |
| 2026-05-05 16:13 | 37.18789 | -7.61476 | 6647 ft | 271 kts | 181° |
| 2026-05-05 16:13 | 37.16935 | -7.61478 | 6377 ft | 262 kts | 180° |
| 2026-05-05 16:14 | 37.13386 | -7.61479 | 5839 ft | 251 kts | 180° |
| 2026-05-05 16:14 | 37.09906 | -7.61481 | 5399 ft | 248 kts | 181° |
| 2026-05-05 16:15 | 37.06645 | -7.62294 | 5229 ft | 246 kts | 208° |
| 2026-05-05 16:15 | 37.03518 | -7.64084 | 5023 ft | 249 kts | 206° |
| 2026-05-05 16:16 | 37.00410 | -7.65802 | 4578 ft | 237 kts | 206° |
| 2026-05-05 16:16 | 36.97857 | -7.67895 | 4306 ft | 208 kts | 253° |
| 2026-05-05 16:17 | 36.97947 | -7.71294 | 3891 ft | 195 kts | 283° |
| 2026-05-05 16:17 | 36.98142 | -7.72944 | 3623 ft | 187 kts | 285° |
| 2026-05-05 16:18 | 36.98556 | -7.76017 | 3147 ft | 175 kts | 283° |
| 2026-05-05 16:18 | 36.98761 | -7.77492 | 2917 ft | 170 kts | 283° |
| 2026-05-05 16:18 | 36.99171 | -7.80425 | 2485 ft | 174 kts | 284° |
| 2026-05-05 16:19 | 36.99382 | -7.81925 | 2237 ft | 175 kts | 284° |
| 2026-05-05 16:19 | 36.99591 | -7.83423 | 1987 ft | 172 kts | 283° |
| 2026-05-05 16:19 | 36.99973 | -7.86160 | 1583 ft | 151 kts | 284° |
| 2026-05-05 16:20 | 37.00309 | -7.88541 | 1249 ft | 132 kts | 283° |
| 2026-05-05 16:20 | 37.00632 | -7.90796 | 850 ft | 130 kts | 279° |
| 2026-05-05 16:21 | 37.00936 | -7.93077 | 484 ft | 133 kts | 281° |
| 2026-05-05 16:22 | 37.01416 | -7.96405 | 40 ft | 124 kts | 281° |
| 2026-05-05 16:22 | 37.01617 | -7.97815 | 20 ft | 16 kts | 284° |
| 2026-05-05 16:23 | 37.01723 | -7.97807 | 19 ft | 6 kts | 54° |
| 2026-05-05 16:23 | 37.01743 | -7.97762 | 19 ft | 6 kts | 64° |
| 2026-05-05 16:23 | 37.01769 | -7.97672 | 19 ft | 5 kts | 79° |
| 2026-05-05 16:24 | 37.01773 | -7.97630 | 20 ft | 5 kts | 89° |
| 2026-05-05 16:24 | 37.01769 | -7.97588 | 19 ft | 5 kts | 98° |
| 2026-05-05 16:24 | 37.01747 | -7.97421 | 19 ft | 15 kts | 100° |
| 2026-05-05 16:25 | 37.01727 | -7.97298 | 20 ft | 14 kts | 101° |
| 2026-05-05 16:25 | 37.01697 | -7.97069 | 19 ft | 13 kts | 99° |
| 2026-05-05 16:25 | 37.01682 | -7.96958 | 19 ft | 13 kts | 98° |
| 2026-05-05 16:26 | 37.01820 | -7.96870 | 19 ft | 12 kts | 49° |
| 2026-05-05 16:26 | 37.01806 | -7.96674 | 19 ft | 11 kts | 100° |
| 2026-05-05 16:27 | 37.01793 | -7.96580 | 19 ft | 11 kts | 99° |
| 2026-05-05 16:27 | 37.01779 | -7.96485 | 19 ft | 11 kts | 101° |
| 2026-05-05 16:27 | 37.01767 | -7.96405 | 19 ft | 6 kts | 101° |
| 2026-05-05 16:27 | 37.01789 | -7.96373 | 18 ft | 6 kts | 5° |
| 2026-05-05 16:28 | 37.01835 | -7.96365 | 17 ft | 5 kts | 9° |
| 2026-05-05 16:28 | 37.01836 | -7.96365 | 17 ft | 1 kts | 9° |
| 2026-05-05 16:28 | 37.01841 | -7.96364 | 17 ft | 0 kts | 9° |